Time;durP1;ratioP1;P1;durP2;ratioP2;P2;SDS_P1;SDS_P2;PMS_P1;PMS_P2;Temp;Humidity;BMP_temperature;BMP_pressure;BME280_temperature;BME280_humidity;BME280_pressure;Samples;Min_cycle;Max_cycle;Signal;HPM_P1;HPM_P2
2021/07/21 00:00:16;;;;;;;5.47;4.80;;;22.80;56.40;;;;;;5034539;28;20259;-70
2021/07/21 00:02:42;;;;;;;5.45;4.95;;;22.80;56.50;;;;;;5034331;28;20638;-69
2021/07/21 00:05:11;;;;;;;5.20;4.70;;;22.80;56.40;;;;;;5033415;28;20172;-70
2021/07/21 00:07:37;;;;;;;5.78;4.68;;;22.80;56.40;;;;;;5033937;28;20167;-70
2021/07/21 00:10:07;;;;;;;5.25;4.75;;;22.80;56.30;;;;;;5034072;28;20178;-69
2021/07/21 00:15:17;;;;;;;5.20;4.70;;;22.70;56.20;;;;;;5033829;28;20281;-69
2021/07/21 00:17:45;;;;;;;5.75;4.95;;;22.70;56.20;;;;;;5034216;28;20248;-69
2021/07/21 00:20:11;;;;;;;5.22;4.72;;;22.70;56.20;;;;;;5033302;28;20180;-70
2021/07/21 00:22:40;;;;;;;5.40;4.72;;;22.70;56.20;;;;;;5033583;28;20187;-69
2021/07/21 00:25:06;;;;;;;5.63;5.03;;;22.70;56.20;;;;;;5033314;28;20176;-70
2021/07/21 00:27:32;;;;;;;5.93;4.82;;;22.70;56.10;;;;;;5033313;28;20168;-68
2021/07/21 00:29:58;;;;;;;7.43;5.25;;;22.70;56.10;;;;;;5033950;28;20222;-68
2021/07/21 00:32:23;;;;;;;5.15;4.65;;;22.70;56.30;;;;;;5032592;28;20180;-69
2021/07/21 00:34:49;;;;;;;5.65;4.80;;;22.70;56.30;;;;;;5033624;28;20207;-68
2021/07/21 00:37:14;;;;;;;4.97;4.40;;;22.70;56.30;;;;;;5033635;28;20226;-70
2021/07/21 00:39:40;;;;;;;5.25;4.68;;;22.70;56.40;;;;;;5032708;28;20180;-69
2021/07/21 00:42:05;;;;;;;5.00;4.50;;;22.70;56.30;;;;;;5033489;28;20167;-70
2021/07/21 00:44:31;;;;;;;5.65;5.05;;;22.70;56.30;;;;;;5033114;28;20186;-70
2021/07/21 00:46:57;;;;;;;6.00;5.40;;;22.70;56.40;;;;;;5032666;28;20584;-69
2021/07/21 00:49:25;;;;;;;4.60;4.10;;;22.60;56.40;;;;;;5032882;28;20705;-70
2021/07/21 00:51:51;;;;;;;5.43;4.97;;;22.60;56.40;;;;;;5033369;28;20180;-69
2021/07/21 00:54:17;;;;;;;4.88;4.38;;;22.60;56.30;;;;;;5014842;28;20196;-69
2021/07/21 00:56:42;;;;;;;5.93;5.35;;;22.60;56.30;;;;;;5033244;28;20189;-69
2021/07/21 00:59:08;;;;;;;5.10;4.60;;;22.60;56.40;;;;;;4999240;28;20219;-68
2021/07/21 01:01:34;;;;;;;6.35;5.43;;;22.60;56.50;;;;;;5014490;28;20719;-69
2021/07/21 01:04:02;;;;;;;5.25;4.70;;;22.60;56.60;;;;;;5033178;28;20179;-69
2021/07/21 01:06:27;;;;;;;5.47;4.97;;;22.60;56.70;;;;;;5032944;28;20187;-69
2021/07/21 01:08:53;;;;;;;4.90;4.50;;;22.60;56.80;;;;;;5032424;28;20172;-70
2021/07/21 01:11:33;;;;;;;5.43;4.93;;;22.60;56.70;;;;;;5015107;28;20263;-69
2021/07/21 01:14:17;;;;;;;5.60;5.00;;;22.60;56.90;;;;;;5032953;28;20190;-68
2021/07/21 01:16:47;;;;;;;5.65;5.03;;;22.60;56.90;;;;;;5032992;28;20187;-69
2021/07/21 01:19:16;;;;;;;5.05;4.65;;;22.60;56.90;;;;;;5033165;28;20226;-69
2021/07/21 01:22:13;;;;;;;5.30;4.80;;;22.60;56.90;;;;;;4998302;28;20569;-71
2021/07/21 01:25:02;;;;;;;4.88;4.38;;;22.60;56.90;;;;;;5032387;28;20234;-69
2021/07/21 01:27:50;;;;;;;5.03;4.55;;;22.60;56.90;;;;;;5032529;28;20542;-68
2021/07/21 01:30:17;;;;;;;6.18;4.53;;;22.50;56.80;;;;;;5016875;28;20172;-68
2021/07/21 01:32:48;;;;;;;5.22;4.78;;;22.50;56.90;;;;;;5032886;28;20215;-68
2021/07/21 01:35:25;;;;;;;5.25;4.75;;;22.50;57.00;;;;;;5032190;28;20262;-68
2021/07/21 01:37:58;;;;;;;5.60;5.00;;;22.60;57.00;;;;;;5015290;28;20175;-69
2021/07/21 01:40:26;;;;;;;5.45;4.78;;;22.50;57.00;;;;;;5014800;28;20191;-69
2021/07/21 01:42:52;;;;;;;5.40;4.90;;;22.60;57.10;;;;;;5014668;28;20238;-69
2021/07/21 01:45:18;;;;;;;4.80;4.30;;;22.50;56.90;;;;;;4998456;28;20541;-70
2021/07/21 01:47:44;;;;;;;5.22;4.53;;;22.50;57.00;;;;;;5015008;28;20274;-69
2021/07/21 01:50:10;;;;;;;5.43;4.90;;;22.50;57.00;;;;;;5032087;28;20262;-70
2021/07/21 01:52:37;;;;;;;5.40;4.90;;;22.50;57.20;;;;;;5032392;28;20391;-69
2021/07/21 01:55:04;;;;;;;6.30;4.97;;;22.50;57.10;;;;;;4998844;28;20219;-69
2021/07/21 01:57:30;;;;;;;5.07;4.57;;;22.50;57.10;;;;;;5014324;28;20229;-69
2021/07/21 01:59:56;;;;;;;5.63;5.05;;;22.50;57.10;;;;;;5032750;28;20207;-69
2021/07/21 02:02:22;;;;;;;5.75;4.97;;;22.50;57.20;;;;;;5014906;28;20203;-69
2021/07/21 02:04:48;;;;;;;5.50;5.00;;;22.50;57.10;;;;;;5014547;28;20208;-69
2021/07/21 02:07:13;;;;;;;5.20;4.78;;;22.50;57.10;;;;;;4998718;28;20207;-70
2021/07/21 02:09:40;;;;;;;4.72;4.32;;;22.50;57.10;;;;;;5014494;28;20176;-69
2021/07/21 02:12:05;;;;;;;5.13;4.63;;;22.50;57.20;;;;;;5031886;28;20172;-68
2021/07/21 02:14:31;;;;;;;5.40;4.78;;;22.40;57.10;;;;;;5032126;28;20558;-69
2021/07/21 02:16:57;;;;;;;5.03;4.53;;;22.40;57.10;;;;;;4998622;28;20199;-69
2021/07/21 02:19:22;;;;;;;5.32;4.82;;;22.40;57.10;;;;;;5014007;28;20249;-70
2021/07/21 02:21:48;;;;;;;5.90;4.57;;;22.40;57.80;;;;;;5014648;28;20511;-70
2021/07/21 02:24:13;;;;;;;5.32;4.82;;;22.40;57.10;;;;;;4998392;28;20179;-69
2021/07/21 02:26:39;;;;;;;5.32;4.82;;;22.40;57.30;;;;;;5031508;28;20179;-69
2021/07/21 02:29:06;;;;;;;6.45;5.65;;;22.40;57.20;;;;;;4998534;28;20172;-68
2021/07/21 02:31:37;;;;;;;5.72;5.03;;;22.40;57.20;;;;;;4997508;28;20180;-68
2021/07/21 02:34:03;;;;;;;5.60;5.10;;;22.40;57.30;;;;;;4998919;28;20168;-69
2021/07/21 02:36:29;;;;;;;5.20;4.70;;;22.40;57.30;;;;;;5033116;28;20179;-69
2021/07/21 02:38:55;;;;;;;5.53;4.55;;;22.40;57.20;;;;;;5035057;28;20172;-69
2021/07/21 02:41:24;;;;;;;5.18;4.68;;;22.40;57.30;;;;;;5035587;28;20176;-70
2021/07/21 02:43:49;;;;;;;5.55;4.97;;;22.40;57.30;;;;;;5035610;28;20553;-70
2021/07/21 02:46:15;;;;;;;5.10;4.60;;;22.40;57.30;;;;;;5033803;28;20190;-70
2021/07/21 02:48:47;;;;;;;4.75;4.35;;;22.40;57.40;;;;;;5035481;28;20713;-70
2021/07/21 02:51:39;;;;;;;5.35;4.82;;;22.40;57.40;;;;;;5035304;28;20579;-70
2021/07/21 02:54:08;;;;;;;5.35;4.55;;;22.40;57.30;;;;;;4980643;28;20245;-70
2021/07/21 02:56:37;;;;;;;6.32;4.82;;;22.40;57.40;;;;;;5035226;28;20180;-69
2021/07/21 02:59:04;;;;;;;5.05;4.55;;;22.40;57.40;;;;;;5035697;28;20184;-69
2021/07/21 03:01:32;;;;;;;5.75;5.07;;;22.40;57.40;;;;;;5016915;28;20178;-69
2021/07/21 03:03:57;;;;;;;5.57;4.88;;;22.30;57.30;;;;;;5001564;28;20520;-69
2021/07/21 03:06:24;;;;;;;6.60;4.93;;;22.40;57.40;;;;;;5017617;28;20179;-69
2021/07/21 03:08:49;;;;;;;5.75;5.10;;;22.30;58.00;;;;;;5000694;28;20202;-69
2021/07/21 03:11:15;;;;;;;4.95;4.38;;;22.30;57.50;;;;;;5001402;28;20172;-70
2021/07/21 03:13:45;;;;;;;6.68;5.38;;;22.30;57.40;;;;;;5000683;28;20167;-69
2021/07/21 03:16:11;;;;;;;6.15;5.00;;;22.30;57.50;;;;;;5017520;28;20226;-69
2021/07/21 03:18:38;;;;;;;5.20;4.72;;;22.30;57.50;;;;;;5001179;28;20179;-69
2021/07/21 03:21:03;;;;;;;4.93;4.32;;;22.30;57.50;;;;;;5034200;28;20550;-69
2021/07/21 03:23:29;;;;;;;4.70;4.30;;;22.30;57.50;;;;;;5000967;28;20187;-70
2021/07/21 03:25:57;;;;;;;5.05;4.65;;;22.30;57.50;;;;;;5001169;28;20188;-69
2021/07/21 03:28:24;;;;;;;5.93;5.07;;;22.30;57.60;;;;;;5016342;28;20179;-68
2021/07/21 03:30:50;;;;;;;6.50;4.78;;;22.30;58.30;;;;;;5017446;28;20591;-68
2021/07/21 03:33:17;;;;;;;5.30;4.40;;;22.30;57.60;;;;;;5000971;28;20183;-68
2021/07/21 03:35:42;;;;;;;5.70;4.85;;;22.30;57.60;;;;;;5000036;28;20234;-69
2021/07/21 03:38:08;;;;;;;5.55;5.05;;;22.30;57.60;;;;;;5000775;28;20540;-69
2021/07/21 03:40:33;;;;;;;5.78;5.00;;;22.30;57.60;;;;;;5016747;28;20180;-70
2021/07/21 03:42:59;;;;;;;4.97;4.47;;;22.30;57.60;;;;;;5000070;28;20187;-70
2021/07/21 03:45:25;;;;;;;6.57;5.22;;;22.30;57.60;;;;;;5016485;28;20199;-70
2021/07/21 03:47:51;;;;;;;5.45;4.50;;;22.20;57.60;;;;;;5016799;28;20223;-70
2021/07/21 03:50:21;;;;;;;6.03;4.85;;;22.20;57.60;;;;;;5016018;28;20175;-69
2021/07/21 03:52:47;;;;;;;5.30;4.88;;;22.30;57.60;;;;;;5034407;28;20184;-70
2021/07/21 03:55:16;;;;;;;6.75;4.53;;;22.20;57.60;;;;;;5016750;28;20241;-70
2021/07/21 03:57:43;;;;;;;5.03;4.53;;;22.20;57.60;;;;;;5033625;28;20216;-69
2021/07/21 04:00:10;;;;;;;4.57;4.18;;;22.20;57.60;;;;;;5016649;28;20580;-70
2021/07/21 04:02:35;;;;;;;5.45;4.95;;;22.20;57.60;;;;;;5016697;28;20183;-69
2021/07/21 04:05:01;;;;;;;5.10;4.60;;;22.20;57.60;;;;;;4999652;28;20176;-70
2021/07/21 04:07:26;;;;;;;5.75;5.20;;;22.20;58.30;;;;;;5000079;28;20178;-70
2021/07/21 04:09:52;;;;;;;4.82;4.32;;;22.20;57.60;;;;;;5016410;28;20175;-70
2021/07/21 04:12:18;;;;;;;5.40;4.90;;;22.30;57.70;;;;;;5033157;28;20202;-69
2021/07/21 04:14:44;;;;;;;4.82;4.35;;;22.20;57.70;;;;;;5016383;28;20207;-68
2021/07/21 04:17:09;;;;;;;5.60;5.00;;;22.20;57.60;;;;;;4999086;28;20180;-69
2021/07/21 04:19:35;;;;;;;5.20;4.70;;;22.20;57.70;;;;;;5015937;28;20677;-71
2021/07/21 04:22:00;;;;;;;4.82;4.43;;;22.20;57.70;;;;;;5016325;28;20267;-69
2021/07/21 04:24:26;;;;;;;5.30;4.80;;;22.20;57.70;;;;;;5015305;28;20178;-70
2021/07/21 04:26:52;;;;;;;5.82;5.22;;;22.20;57.70;;;;;;5016150;28;20262;-68
2021/07/21 04:29:19;;;;;;;5.72;5.00;;;22.20;57.60;;;;;;5033276;28;20210;-68
2021/07/21 04:31:45;;;;;;;5.50;4.82;;;22.20;57.70;;;;;;5033486;28;20179;-68
2021/07/21 04:34:11;;;;;;;5.60;5.00;;;22.20;57.70;;;;;;5016111;28;20183;-68
2021/07/21 04:36:38;;;;;;;4.75;4.35;;;22.10;57.70;;;;;;5033486;28;20191;-70
2021/07/21 04:39:04;;;;;;;5.75;4.90;;;22.20;57.80;;;;;;5015505;28;20180;-71
2021/07/21 04:41:29;;;;;;;5.45;4.95;;;22.20;57.70;;;;;;5033751;28;20183;-70
2021/07/21 04:43:55;;;;;;;4.57;4.18;;;22.20;57.80;;;;;;5015808;28;20588;-70
2021/07/21 04:46:21;;;;;;;5.93;5.43;;;22.20;57.80;;;;;;5015616;28;20248;-68
2021/07/21 04:48:46;;;;;;;5.60;4.55;;;22.20;57.80;;;;;;5015692;28;20314;-70
2021/07/21 04:51:13;;;;;;;5.30;4.22;;;22.20;57.80;;;;;;5015869;28;20210;-70
2021/07/21 04:53:39;;;;;;;5.40;4.88;;;22.20;57.80;;;;;;5014902;28;20187;-69
2021/07/21 04:56:04;;;;;;;5.38;4.85;;;22.20;57.80;;;;;;4999614;28;20581;-69
2021/07/21 04:58:30;;;;;;;5.15;4.30;;;22.20;57.80;;;;;;5032514;28;20180;-68
2021/07/21 05:00:56;;;;;;;5.25;4.75;;;22.20;57.80;;;;;;5032560;28;20171;-69
2021/07/21 05:03:22;;;;;;;5.40;4.90;;;22.20;57.80;;;;;;4999062;28;20175;-69
2021/07/21 05:05:47;;;;;;;4.63;4.22;;;22.20;57.80;;;;;;5033258;28;20202;-69
2021/07/21 05:08:13;;;;;;;5.00;4.38;;;22.20;57.80;;;;;;5032432;28;20638;-71
2021/07/21 05:10:40;;;;;;;5.20;4.70;;;22.20;57.80;;;;;;5032699;28;20175;-69
2021/07/21 05:13:06;;;;;;;4.97;4.55;;;22.20;57.80;;;;;;5033776;28;20176;-69
2021/07/21 05:15:32;;;;;;;5.35;4.80;;;22.20;57.80;;;;;;5031898;28;20222;-69
2021/07/21 05:17:57;;;;;;;5.38;4.82;;;22.20;57.80;;;;;;5033191;28;20171;-69
2021/07/21 05:20:23;;;;;;;4.60;4.20;;;22.20;58.00;;;;;;5032012;28;20175;-70
2021/07/21 05:22:48;;;;;;;5.47;4.95;;;22.20;57.80;;;;;;5032884;28;20206;-68
2021/07/21 05:25:14;;;;;;;5.03;4.63;;;22.20;57.90;;;;;;5032628;28;20183;-69
2021/07/21 05:27:40;;;;;;;5.68;5.13;;;22.20;57.80;;;;;;5031774;28;20172;-69
2021/07/21 05:30:06;;;;;;;4.90;4.50;;;22.20;57.80;;;;;;5032793;28;20225;-68
2021/07/21 05:32:31;;;;;;;5.72;5.22;;;22.20;57.80;;;;;;5032390;28;20533;-69
2021/07/21 05:34:57;;;;;;;5.93;5.07;;;22.20;57.90;;;;;;5032292;28;20199;-70
2021/07/21 05:37:22;;;;;;;5.55;5.05;;;22.20;57.80;;;;;;5032609;28;20179;-70
2021/07/21 05:39:48;;;;;;;5.35;4.95;;;22.20;57.80;;;;;;5032955;28;20172;-70
2021/07/21 05:42:14;;;;;;;5.32;4.40;;;22.20;57.80;;;;;;5031864;28;20168;-70
2021/07/21 05:44:39;;;;;;;5.20;4.80;;;22.20;57.80;;;;;;5032610;28;20226;-72
2021/07/21 05:47:05;;;;;;;5.68;5.18;;;22.20;57.90;;;;;;5033035;28;20164;-69
2021/07/21 05:49:30;;;;;;;5.43;4.93;;;22.20;57.90;;;;;;5032165;28;20231;-70
2021/07/21 05:51:56;;;;;;;4.97;4.57;;;22.20;57.90;;;;;;5033032;28;20184;-70
2021/07/21 05:54:21;;;;;;;5.00;4.45;;;22.20;57.90;;;;;;5032676;28;20214;-69
2021/07/21 05:56:47;;;;;;;5.63;5.07;;;22.20;57.90;;;;;;5032284;28;20188;-70
2021/07/21 05:59:12;;;;;;;4.90;4.50;;;22.20;58.00;;;;;;5032933;28;20172;-69
2021/07/21 06:01:38;;;;;;;5.65;5.10;;;22.20;58.00;;;;;;5032408;28;20197;-70
2021/07/21 06:04:05;;;;;;;5.18;4.60;;;22.20;58.00;;;;;;5032259;28;20172;-71
2021/07/21 06:06:31;;;;;;;4.63;4.22;;;22.20;58.10;;;;;;5032205;28;20203;-70
2021/07/21 06:08:56;;;;;;;4.97;4.45;;;22.20;58.00;;;;;;5032361;28;20642;-68
2021/07/21 06:11:22;;;;;;;5.32;4.82;;;22.20;58.00;;;;;;5034524;28;20183;-67
2021/07/21 06:13:47;;;;;;;4.60;4.20;;;22.20;58.10;;;;;;5036460;28;20705;-68
2021/07/21 06:16:15;;;;;;;5.72;4.95;;;22.20;58.10;;;;;;5036667;28;20208;-69
2021/07/21 06:18:44;;;;;;;4.95;4.47;;;22.20;58.10;;;;;;5036321;28;20585;-70
2021/07/21 06:21:10;;;;;;;4.90;4.40;;;22.20;58.10;;;;;;5036671;28;20187;-70
2021/07/21 06:23:35;;;;;;;5.78;4.80;;;22.20;58.10;;;;;;5035150;28;20192;-69
2021/07/21 06:26:01;;;;;;;5.45;4.95;;;22.20;58.10;;;;;;5035939;28;20266;-68
2021/07/21 06:28:27;;;;;;;5.45;4.95;;;22.20;58.10;;;;;;5035626;28;20266;-69
2021/07/21 06:30:52;;;;;;;4.65;4.25;;;22.20;58.10;;;;;;5017771;28;20164;-68
2021/07/21 06:33:18;;;;;;;5.43;4.93;;;22.20;58.00;;;;;;5035621;28;20176;-69
2021/07/21 06:35:47;;;;;;;5.53;4.40;;;22.30;58.10;;;;;;5035811;28;20668;-71
2021/07/21 06:38:12;;;;;;;5.05;4.55;;;22.20;58.10;;;;;;5035052;28;20175;-70
2021/07/21 06:40:38;;;;;;;5.53;5.03;;;22.20;58.10;;;;;;5035476;28;20234;-71
2021/07/21 06:43:04;;;;;;;5.57;4.72;;;22.20;58.10;;;;;;5035873;28;20180;-72
2021/07/21 06:45:29;;;;;;;4.97;4.47;;;22.30;58.10;;;;;;5034824;28;20179;-72
2021/07/21 06:47:55;;;;;;;5.18;4.78;;;22.20;58.10;;;;;;5035370;28;20759;-69
2021/07/21 06:50:21;;;;;;;5.28;4.57;;;22.20;58.10;;;;;;5035316;28;20234;-68
2021/07/21 06:52:46;;;;;;;5.50;5.00;;;22.20;58.10;;;;;;5034803;28;20218;-68
2021/07/21 06:55:12;;;;;;;5.38;4.55;;;22.30;58.80;;;;;;5035395;28;20265;-68
2021/07/21 06:57:37;;;;;;;5.32;4.82;;;22.30;58.10;;;;;;5035304;28;20214;-68
2021/07/21 07:00:05;;;;;;;6.05;4.82;;;22.30;58.10;;;;;;5034939;28;20226;-69
2021/07/21 07:02:30;;;;;;;4.82;4.38;;;22.30;58.10;;;;;;5034953;28;20178;-67
2021/07/21 07:04:56;;;;;;;5.00;4.50;;;22.30;58.10;;;;;;5035306;28;20263;-68
2021/07/21 07:07:21;;;;;;;4.70;4.30;;;22.30;58.10;;;;;;5034309;28;20168;-70
2021/07/21 07:09:47;;;;;;;4.65;4.20;;;22.30;58.10;;;;;;5035415;28;20180;-68
2021/07/21 07:12:13;;;;;;;4.88;4.45;;;22.30;58.10;;;;;;5035404;28;20172;-68
2021/07/21 07:14:38;;;;;;;4.80;4.40;;;22.30;58.10;;;;;;5034306;28;20206;-66
2021/07/21 07:17:04;;;;;;;5.30;4.80;;;22.30;58.10;;;;;;5035225;28;20249;-69
2021/07/21 07:19:29;;;;;;;5.47;4.97;;;22.30;58.10;;;;;;5034819;28;20172;-69
2021/07/21 07:21:55;;;;;;;4.80;4.40;;;22.30;58.10;;;;;;5033712;28;20215;-68
2021/07/21 07:24:20;;;;;;;5.13;4.70;;;22.30;58.20;;;;;;5034666;28;20187;-68
2021/07/21 07:26:47;;;;;;;5.03;4.63;;;22.30;58.10;;;;;;5035233;28;20175;-66
2021/07/21 07:29:12;;;;;;;5.40;4.90;;;22.30;58.20;;;;;;5034356;28;20176;-67
2021/07/21 07:31:38;;;;;;;5.18;4.05;;;22.30;58.20;;;;;;5034526;28;20199;-66
2021/07/21 07:34:03;;;;;;;5.25;4.75;;;22.30;58.20;;;;;;5034176;28;20536;-68
2021/07/21 07:36:29;;;;;;;5.28;4.78;;;22.30;58.20;;;;;;5034560;28;20219;-68
2021/07/21 07:38:54;;;;;;;5.57;4.70;;;22.30;58.90;;;;;;5034613;28;20187;-68
2021/07/21 07:41:23;;;;;;;5.25;4.63;;;22.30;58.30;;;;;;5033822;28;20179;-69
2021/07/21 07:43:50;;;;;;;5.18;4.65;;;22.30;58.30;;;;;;5034642;28;20171;-68
2021/07/21 07:46:15;;;;;;;5.00;4.50;;;22.30;58.30;;;;;;5034619;28;20184;-71
2021/07/21 07:48:41;;;;;;;5.25;4.75;;;22.30;58.30;;;;;;5033706;28;20222;-72
2021/07/21 07:51:06;;;;;;;5.70;4.93;;;22.30;58.40;;;;;;5034467;28;20577;-67
2021/07/21 07:53:32;;;;;;;5.20;4.47;;;22.30;58.40;;;;;;5034276;28;20172;-68
2021/07/21 07:55:57;;;;;;;6.85;4.57;;;22.40;58.50;;;;;;5033520;28;20238;-67
2021/07/21 07:58:23;;;;;;;8.82;5.57;;;22.40;58.40;;;;;;5034113;28;20653;-67
2021/07/21 08:00:48;;;;;;;7.38;4.55;;;22.40;58.40;;;;;;5030776;28;20180;-67
2021/07/21 08:03:14;;;;;;;10.57;5.50;;;22.40;58.50;;;;;;5021479;28;20174;-66
2021/07/21 08:05:40;;;;;;;5.50;5.00;;;22.40;58.70;;;;;;5023649;28;20582;-67
2021/07/21 08:08:05;;;;;;;4.45;4.05;;;22.50;58.60;;;;;;5022663;28;20673;-67
2021/07/21 08:10:31;;;;;;;6.03;4.55;;;22.50;58.60;;;;;;5021403;28;20182;-66
2021/07/21 08:12:56;;;;;;;5.45;4.70;;;22.50;58.60;;;;;;5023947;28;20180;-66
2021/07/21 08:15:22;;;;;;;5.30;4.80;;;22.50;58.70;;;;;;5014740;28;20227;-65
2021/07/21 08:17:47;;;;;;;7.32;5.70;;;22.50;58.70;;;;;;5013230;28;20199;-67
2021/07/21 08:20:13;;;;;;;6.55;5.15;;;22.50;58.80;;;;;;5013791;28;20576;-67
2021/07/21 08:22:39;;;;;;;5.65;4.60;;;22.60;58.80;;;;;;5013912;28;20200;-70
2021/07/21 08:25:07;;;;;;;6.93;4.45;;;22.60;58.80;;;;;;5013461;28;20580;-71
2021/07/21 08:27:32;;;;;;;5.22;4.72;;;22.60;58.80;;;;;;5013807;28;20231;-68
2021/07/21 08:29:58;;;;;;;6.78;5.20;;;22.60;58.80;;;;;;5014054;28;20180;-69
2021/07/21 08:32:23;;;;;;;6.10;4.93;;;22.60;58.80;;;;;;5013079;28;20230;-69
2021/07/21 08:34:49;;;;;;;9.20;5.20;;;22.60;58.80;;;;;;5012871;28;20258;-69
2021/07/21 08:37:14;;;;;;;5.57;4.38;;;22.60;58.70;;;;;;5013186;28;20176;-71
2021/07/21 08:39:40;;;;;;;5.30;4.80;;;22.60;58.70;;;;;;4996254;28;20176;-70
2021/07/21 08:42:06;;;;;;;9.80;4.75;;;22.70;58.70;;;;;;5013896;28;20183;-71
2021/07/21 08:44:31;;;;;;;4.90;4.43;;;22.70;58.70;;;;;;4995483;28;20172;-71
2021/07/21 08:46:57;;;;;;;5.78;4.28;;;22.60;58.60;;;;;;5013705;28;20173;-70
2021/07/21 08:49:23;;;;;;;5.72;4.78;;;22.70;58.70;;;;;;5013037;28;20224;-71
2021/07/21 08:51:48;;;;;;;5.43;4.78;;;22.80;58.70;;;;;;5013075;28;20181;-70
2021/07/21 08:54:16;;;;;;;5.50;5.00;;;22.80;58.60;;;;;;4996179;28;20199;-72
2021/07/21 08:56:41;;;;;;;6.40;4.60;;;22.70;58.60;;;;;;5013522;28;20643;-71
2021/07/21 08:59:07;;;;;;;6.90;4.72;;;22.80;59.40;;;;;;4995374;28;20187;-71
2021/07/21 09:01:33;;;;;;;6.90;4.70;;;22.80;58.80;;;;;;4995454;28;20179;-72
2021/07/21 09:04:01;;;;;;;8.10;4.85;;;22.90;58.80;;;;;;4996039;28;20184;-73
2021/07/21 09:06:27;;;;;;;5.10;4.60;;;22.90;58.90;;;;;;4995187;28;20682;-70
2021/07/21 09:08:52;;;;;;;6.43;4.75;;;22.90;58.80;;;;;;5017654;28;20263;-70
2021/07/21 09:11:18;;;;;;;6.75;4.75;;;22.90;58.80;;;;;;5014118;28;20264;-70
2021/07/21 09:13:43;;;;;;;7.32;5.30;;;23.00;58.90;;;;;;4995158;28;20255;-73
2021/07/21 09:16:09;;;;;;;7.53;5.10;;;23.00;58.90;;;;;;5013391;28;20215;-71
2021/07/21 09:18:51;;;;;;;7.70;4.90;;;23.00;58.90;;;;;;4994831;28;20254;-72
2021/07/21 09:21:19;;;;;;;6.03;4.80;;;23.00;59.00;;;;;;5012132;28;20184;-72
2021/07/21 09:23:52;;;;;;;7.18;4.65;;;23.10;59.00;;;;;;5013317;28;20176;-72
2021/07/21 09:26:19;;;;;;;7.50;5.47;;;23.10;59.00;;;;;;5012967;28;20169;-63
2021/07/21 09:28:45;;;;;;;6.75;5.07;;;23.20;59.00;;;;;;4994671;28;20180;-65
2021/07/21 09:31:15;;;;;;;5.93;5.35;;;23.20;59.00;;;;;;5012996;28;20649;-64
2021/07/21 09:33:44;;;;;;;7.05;5.03;;;23.20;58.90;;;;;;5012605;28;20235;-65
2021/07/21 09:36:17;;;;;;;7.13;5.40;;;23.20;58.90;;;;;;5013168;28;20220;-65
2021/07/21 09:38:44;;;;;;;6.88;4.63;;;23.20;58.90;;;;;;5013326;28;20172;-65
2021/07/21 09:41:10;;;;;;;5.90;4.90;;;23.30;59.00;;;;;;5012502;28;20176;-64
2021/07/21 09:43:36;;;;;;;6.43;5.15;;;23.30;58.90;;;;;;4995142;28;20701;-65
2021/07/21 09:46:07;;;;;;;5.30;4.80;;;23.30;58.90;;;;;;5015197;28;20180;-66
2021/07/21 09:48:42;;;;;;;6.25;4.22;;;23.30;58.90;;;;;;5015975;28;20593;-66
2021/07/21 09:51:08;;;;;;;5.05;4.28;;;23.30;58.90;;;;;;5016901;28;20710;-66
2021/07/21 09:53:41;;;;;;;5.38;4.70;;;23.30;58.90;;;;;;5016538;28;20633;-66
2021/07/21 09:56:08;;;;;;;6.50;4.38;;;23.40;59.50;;;;;;5016179;28;20295;-66
2021/07/21 09:58:36;;;;;;;8.35;4.75;;;23.40;58.80;;;;;;5016487;28;20173;-66
2021/07/21 10:01:02;;;;;;;6.72;5.28;;;23.40;58.80;;;;;;5017047;28;20204;-65
2021/07/21 10:03:29;;;;;;;6.03;4.53;;;23.50;58.80;;;;;;5015674;28;20208;-66
2021/07/21 10:05:59;;;;;;;5.65;5.03;;;23.40;58.70;;;;;;5016986;28;20176;-66
2021/07/21 10:08:29;;;;;;;7.13;4.90;;;23.50;58.70;;;;;;5016472;28;20553;-66
2021/07/21 10:10:55;;;;;;;5.93;4.70;;;23.50;58.70;;;;;;5015833;28;20180;-67
2021/07/21 10:13:20;;;;;;;4.97;4.43;;;23.50;58.60;;;;;;5016174;28;20526;-67
2021/07/21 10:15:47;;;;;;;6.10;4.47;;;23.50;58.60;;;;;;4998399;28;20219;-66
2021/07/21 10:18:14;;;;;;;5.43;4.35;;;23.50;58.50;;;;;;5016579;28;20173;-66
2021/07/21 10:20:41;;;;;;;5.93;4.88;;;23.60;58.50;;;;;;5016130;28;20180;-66
2021/07/21 10:23:07;;;;;;;5.07;4.50;;;23.60;58.40;;;;;;5015581;28;20275;-66
2021/07/21 10:25:34;;;;;;;8.40;4.65;;;23.50;58.40;;;;;;5016049;28;20260;-66
2021/07/21 10:27:59;;;;;;;6.47;4.97;;;23.60;58.40;;;;;;5016264;28;20532;-65
2021/07/21 10:30:26;;;;;;;5.75;4.43;;;23.60;58.30;;;;;;5015177;28;20683;-65
2021/07/21 10:32:54;;;;;;;4.88;4.38;;;23.70;58.30;;;;;;5016415;28;20181;-66
2021/07/21 10:35:20;;;;;;;6.30;4.50;;;23.70;58.20;;;;;;4998351;28;20219;-66
2021/07/21 10:37:45;;;;;;;4.90;4.40;;;23.70;58.20;;;;;;4998036;28;20184;-66
2021/07/21 10:40:11;;;;;;;4.75;4.32;;;23.70;58.20;;;;;;4998647;28;20537;-70
2021/07/21 10:42:36;;;;;;;4.93;4.43;;;23.70;58.20;;;;;;5001683;28;20272;-69
2021/07/21 10:45:15;;;;;;;4.80;4.30;;;23.70;58.20;;;;;;4997788;28;20662;-70
2021/07/21 10:47:45;;;;;;;5.70;4.85;;;23.70;58.40;;;;;;5015807;28;20191;-69
2021/07/21 10:59:13;;;;;;;5.22;4.72;;;23.90;58.90;;;;;;5015162;28;20215;-72
2021/07/21 11:01:39;;;;;;;5.60;5.00;;;23.90;58.60;;;;;;5015483;28;20200;-69
2021/07/21 11:04:04;;;;;;;5.75;4.85;;;23.90;58.80;;;;;;5015681;28;20172;-69
2021/07/21 11:06:44;;;;;;;5.53;4.55;;;23.90;58.70;;;;;;5014283;28;20176;-69
2021/07/21 11:09:21;;;;;;;5.03;4.38;;;23.90;58.60;;;;;;5015485;28;20246;-70
2021/07/21 11:11:50;;;;;;;5.43;4.90;;;23.90;58.70;;;;;;5015715;28;20184;-67
2021/07/21 11:14:29;;;;;;;5.18;4.60;;;24.00;58.50;;;;;;5014428;28;20697;-68
2021/07/21 11:17:16;;;;;;;6.90;4.72;;;24.00;58.40;;;;;;5015523;28;20643;-69
2021/07/21 11:19:48;;;;;;;9.30;5.07;;;23.90;58.40;;;;;;5013731;28;20283;-70
2021/07/21 11:22:19;;;;;;;6.50;5.22;;;24.00;58.40;;;;;;5015453;28;20184;-70
2021/07/21 11:25:18;;;;;;;6.10;4.63;;;24.00;58.30;;;;;;5015343;28;20183;-69
2021/07/21 11:28:06;;;;;;;6.18;4.63;;;24.00;58.20;;;;;;5014485;28;20263;-69
2021/07/21 11:30:33;;;;;;;5.40;4.70;;;24.00;58.10;;;;;;5015082;28;20172;-68
2021/07/21 11:33:19;;;;;;;5.40;4.88;;;24.00;58.10;;;;;;5015213;28;20200;-68
2021/07/21 11:35:44;;;;;;;5.15;4.65;;;24.10;58.00;;;;;;5000368;28;20214;-69
2021/07/21 11:38:17;;;;;;;5.35;4.85;;;24.10;58.30;;;;;;5014883;28;20169;-69
2021/07/21 11:40:44;;;;;;;6.47;5.05;;;24.00;58.00;;;;;;5014446;28;20206;-69
2021/07/21 11:43:31;;;;;;;5.40;4.90;;;24.00;58.40;;;;;;5014884;28;20641;-69
2021/07/21 11:46:03;;;;;;;5.22;4.63;;;24.00;58.40;;;;;;5014993;28;20191;-69
2021/07/21 11:48:31;;;;;;;5.57;4.90;;;24.00;58.40;;;;;;5013635;28;20220;-69
2021/07/21 11:50:56;;;;;;;5.22;4.38;;;24.00;58.40;;;;;;4997327;28;20631;-70
2021/07/21 11:53:22;;;;;;;5.85;4.85;;;24.00;58.40;;;;;;4996876;28;20234;-69
2021/07/21 11:55:47;;;;;;;5.28;4.78;;;24.00;58.70;;;;;;4996424;28;20220;-68
2021/07/21 11:58:14;;;;;;;6.00;4.82;;;24.00;58.40;;;;;;5014640;28;20263;-68
2021/07/21 12:00:39;;;;;;;7.05;5.18;;;24.00;58.30;;;;;;5014420;28;20177;-68
2021/07/21 12:03:08;;;;;;;5.15;4.47;;;24.10;58.20;;;;;;5013777;28;20235;-68
2021/07/21 12:05:33;;;;;;;6.70;5.30;;;24.10;58.10;;;;;;5014326;28;20199;-70
2021/07/21 12:08:04;;;;;;;5.78;5.22;;;24.10;58.10;;;;;;5014018;28;20595;-71
2021/07/21 12:10:31;;;;;;;6.15;5.10;;;24.10;57.90;;;;;;5013410;28;20681;-69
2021/07/21 12:12:56;;;;;;;5.82;4.90;;;24.20;57.80;;;;;;5014045;28;20267;-70
2021/07/21 12:15:22;;;;;;;5.43;4.88;;;24.20;57.60;;;;;;5013261;28;20295;-70
2021/07/21 12:17:48;;;;;;;6.70;4.70;;;24.30;57.50;;;;;;5014368;28;20215;-70
2021/07/21 12:20:14;;;;;;;5.55;4.53;;;24.30;57.40;;;;;;4996909;28;20189;-70
2021/07/21 12:22:42;;;;;;;6.55;4.88;;;24.40;57.40;;;;;;5020971;28;20235;-69
2021/07/21 12:25:12;;;;;;;6.18;4.65;;;24.40;57.30;;;;;;5019483;28;20188;-69
2021/07/21 12:27:45;;;;;;;8.32;5.30;;;24.40;57.20;;;;;;5022880;28;20183;-68
2021/07/21 12:30:16;;;;;;;5.03;4.60;;;24.30;57.30;;;;;;5022053;28;20169;-67
2021/07/21 12:32:42;;;;;;;6.97;4.97;;;24.30;57.50;;;;;;5005291;28;20259;-67
2021/07/21 12:35:09;;;;;;;5.20;4.70;;;24.20;57.60;;;;;;5024222;28;20298;-69
2021/07/21 12:38:00;;;;;;;5.68;5.07;;;24.20;57.70;;;;;;5012811;28;20586;-70
2021/07/21 12:40:28;;;;;;;5.03;4.53;;;24.20;57.70;;;;;;5011515;28;20230;-72
2021/07/21 12:42:55;;;;;;;7.70;4.60;;;24.10;57.70;;;;;;5013843;28;20627;-71
2021/07/21 12:45:23;;;;;;;6.97;5.07;;;24.10;57.80;;;;;;5012971;28;20180;-71
2021/07/21 12:47:52;;;;;;;6.53;5.30;;;24.00;57.70;;;;;;5014111;28;20188;-69
2021/07/21 12:50:23;;;;;;;6.03;5.43;;;24.00;57.40;;;;;;5013571;28;20246;-68
2021/07/21 12:53:02;;;;;;;8.13;5.47;;;24.10;57.00;;;;;;5013385;28;20224;-68
2021/07/21 12:55:46;;;;;;;6.25;5.65;;;24.20;56.80;;;;;;4997289;28;20223;-68
2021/07/21 12:58:12;;;;;;;6.65;5.60;;;24.30;56.40;;;;;;5013069;28;20168;-68
2021/07/21 13:00:45;;;;;;;6.30;5.70;;;24.20;56.30;;;;;;5013191;28;20670;-68